BVX254B GVNP-EGKK
Flight info
| Callsign | BVX254B |
|---|---|
| Flight time | N/A |
| Altitude | 39000 |
| Route | AMDER1N CVS UN873 IPERA N873 LIMAL T770 URQUI/N0487F380 Y422 GOMER N981 BIMBO/N0472F240 UN981 ASMAR UN741 DEMOS N728 KORUL DCT OTOFE/N0489F410 UN491 UPALO/N0489F400 UT510 DIKRO UM184 PILIP UN6 TELTU |
| Aircraft | A359/H-SDE2E3GHIJ3J4J5LM1ORWXY/LB1D1 |
Departure
| Time | N/A |
|---|---|
| Airport | Nelson Mandela International Airport (GVNP) |
Arrival
| Time | 2026-05-06 18:07 |
|---|---|
| Airport | London Gatwick Airport (EGKK) |
| Time | Latitude | Longitude | Altitude | Speed | Heading |
|---|---|---|---|---|---|
| 2026-05-06 16:00 | 38.73669 | -11.99782 | 39067 ft | 490 kts | 22° |
| 2026-05-06 16:00 | 38.79804 | -11.95937 | 39048 ft | 491 kts | 22° |
| 2026-05-06 16:01 | 38.85941 | -11.92082 | 39048 ft | 491 kts | 22° |
| 2026-05-06 16:01 | 38.92069 | -11.88226 | 39045 ft | 491 kts | 22° |
| 2026-05-06 16:02 | 38.98205 | -11.84358 | 39057 ft | 491 kts | 22° |
| 2026-05-06 16:02 | 39.04333 | -11.80488 | 39048 ft | 491 kts | 22° |
| 2026-05-06 16:03 | 39.10461 | -11.76609 | 39047 ft | 491 kts | 22° |
| 2026-05-06 16:03 | 39.16590 | -11.72723 | 39040 ft | 491 kts | 22° |
| 2026-05-06 16:04 | 39.22675 | -11.68857 | 39051 ft | 491 kts | 22° |
| 2026-05-06 16:04 | 39.28797 | -11.64960 | 39040 ft | 490 kts | 22° |
| 2026-05-06 16:05 | 39.34910 | -11.61061 | 39040 ft | 490 kts | 22° |
| 2026-05-06 16:05 | 39.40814 | -11.56584 | 39037 ft | 493 kts | 28° |
| 2026-05-06 16:06 | 39.45659 | -11.52576 | 39048 ft | 494 kts | 29° |
| 2026-05-06 16:06 | 39.51382 | -11.47761 | 39030 ft | 494 kts | 29° |
| 2026-05-06 16:07 | 39.57147 | -11.42898 | 39046 ft | 494 kts | 29° |
| 2026-05-06 16:07 | 39.62918 | -11.38032 | 39033 ft | 494 kts | 29° |
| 2026-05-06 16:08 | 39.68688 | -11.33163 | 39030 ft | 494 kts | 29° |
| 2026-05-06 16:08 | 39.74456 | -11.28289 | 39039 ft | 495 kts | 30° |
| 2026-05-06 16:09 | 39.80197 | -11.23427 | 39035 ft | 496 kts | 30° |
| 2026-05-06 16:09 | 39.85979 | -11.18519 | 39033 ft | 496 kts | 30° |
| 2026-05-06 16:10 | 39.91759 | -11.13603 | 39029 ft | 496 kts | 30° |
| 2026-05-06 16:10 | 39.97537 | -11.08678 | 39037 ft | 496 kts | 30° |
| 2026-05-06 16:11 | 40.03312 | -11.03746 | 39032 ft | 496 kts | 30° |
| 2026-05-06 16:11 | 40.09082 | -10.98808 | 39031 ft | 496 kts | 30° |
| 2026-05-06 16:12 | 40.14850 | -10.93862 | 39037 ft | 496 kts | 30° |
| 2026-05-06 16:12 | 40.20630 | -10.88896 | 39029 ft | 498 kts | 30° |
| 2026-05-06 16:13 | 40.26423 | -10.83908 | 39023 ft | 498 kts | 30° |
| 2026-05-06 16:13 | 40.32176 | -10.78943 | 39022 ft | 498 kts | 30° |
| 2026-05-06 16:14 | 40.37963 | -10.73939 | 39023 ft | 498 kts | 30° |
| 2026-05-06 16:14 | 40.43745 | -10.68929 | 39029 ft | 498 kts | 30° |
| 2026-05-06 16:15 | 40.49528 | -10.63907 | 39019 ft | 498 kts | 31° |
| 2026-05-06 16:15 | 40.55299 | -10.58886 | 39019 ft | 497 kts | 31° |
| 2026-05-06 16:16 | 40.61072 | -10.53852 | 39018 ft | 499 kts | 31° |
| 2026-05-06 16:16 | 40.66862 | -10.48794 | 39022 ft | 500 kts | 31° |
| 2026-05-06 16:17 | 40.72655 | -10.43721 | 39005 ft | 499 kts | 31° |
| 2026-05-06 16:17 | 40.78432 | -10.38650 | 39019 ft | 499 kts | 31° |
| 2026-05-06 16:18 | 40.84208 | -10.33571 | 39018 ft | 499 kts | 31° |
| 2026-05-06 16:18 | 40.89950 | -10.28511 | 39014 ft | 499 kts | 31° |
| 2026-05-06 16:19 | 40.95723 | -10.23412 | 39011 ft | 498 kts | 31° |
| 2026-05-06 16:19 | 41.01491 | -10.18308 | 39013 ft | 499 kts | 31° |
| 2026-05-06 16:20 | 41.07267 | -10.13185 | 39012 ft | 500 kts | 31° |
| 2026-05-06 16:20 | 41.13048 | -10.08047 | 39019 ft | 500 kts | 31° |
| 2026-05-06 16:21 | 41.18823 | -10.02903 | 39007 ft | 500 kts | 31° |
| 2026-05-06 16:21 | 41.24594 | -9.97750 | 39004 ft | 500 kts | 31° |
| 2026-05-06 16:22 | 41.30363 | -9.92590 | 39004 ft | 500 kts | 31° |
| 2026-05-06 16:22 | 41.36127 | -9.87422 | 39015 ft | 500 kts | 31° |
| 2026-05-06 16:23 | 41.41886 | -9.82248 | 39004 ft | 499 kts | 32° |
| 2026-05-06 16:23 | 41.47651 | -9.77056 | 39001 ft | 500 kts | 32° |
| 2026-05-06 16:24 | 41.53387 | -9.71880 | 39001 ft | 501 kts | 32° |
| 2026-05-06 16:24 | 41.59165 | -9.66654 | 39006 ft | 501 kts | 32° |
| 2026-05-06 16:25 | 41.64926 | -9.61432 | 38998 ft | 500 kts | 32° |
| 2026-05-06 16:25 | 41.70683 | -9.56202 | 39000 ft | 500 kts | 32° |
| 2026-05-06 16:26 | 41.76440 | -9.50961 | 38994 ft | 500 kts | 32° |
| 2026-05-06 16:26 | 41.82200 | -9.45706 | 39002 ft | 500 kts | 32° |
| 2026-05-06 16:27 | 41.87954 | -9.40445 | 38999 ft | 501 kts | 32° |
| 2026-05-06 16:27 | 41.93710 | -9.35170 | 38996 ft | 501 kts | 32° |
| 2026-05-06 16:28 | 41.99470 | -9.29879 | 38996 ft | 501 kts | 32° |
| 2026-05-06 16:28 | 42.05192 | -9.24610 | 38998 ft | 501 kts | 32° |
| 2026-05-06 16:29 | 42.10936 | -9.19309 | 38993 ft | 501 kts | 32° |
| 2026-05-06 16:29 | 42.16690 | -9.13987 | 38993 ft | 501 kts | 32° |
| 2026-05-06 16:30 | 42.21471 | -9.09556 | 38996 ft | 501 kts | 32° |
| 2026-05-06 16:30 | 42.28152 | -9.03352 | 38996 ft | 502 kts | 32° |
| 2026-05-06 16:31 | 42.33907 | -8.97993 | 38993 ft | 502 kts | 33° |
| 2026-05-06 16:31 | 42.39649 | -8.92633 | 38996 ft | 502 kts | 33° |
| 2026-05-06 16:32 | 42.45413 | -8.87242 | 38995 ft | 502 kts | 33° |
| 2026-05-06 16:32 | 42.51117 | -8.81895 | 38995 ft | 502 kts | 33° |
| 2026-05-06 16:33 | 42.56858 | -8.76501 | 39001 ft | 502 kts | 33° |
| 2026-05-06 16:34 | 42.65471 | -8.68385 | 39001 ft | 502 kts | 33° |
| 2026-05-06 16:34 | 42.71204 | -8.62968 | 39018 ft | 502 kts | 33° |
| 2026-05-06 16:35 | 42.76931 | -8.57543 | 39007 ft | 501 kts | 33° |
| 2026-05-06 16:35 | 42.82656 | -8.52108 | 39009 ft | 501 kts | 33° |
| 2026-05-06 16:36 | 42.88369 | -8.46672 | 39015 ft | 501 kts | 33° |
| 2026-05-06 16:36 | 42.94192 | -8.41478 | 39028 ft | 499 kts | 28° |
| 2026-05-06 16:37 | 43.00223 | -8.36781 | 39020 ft | 499 kts | 27° |
| 2026-05-06 16:37 | 43.06289 | -8.32157 | 38998 ft | 499 kts | 27° |
| 2026-05-06 16:38 | 43.12321 | -8.27562 | 39016 ft | 499 kts | 27° |
| 2026-05-06 16:38 | 43.18388 | -8.22919 | 39020 ft | 499 kts | 27° |
| 2026-05-06 16:39 | 43.24441 | -8.18268 | 39020 ft | 499 kts | 27° |
| 2026-05-06 16:39 | 43.30503 | -8.13597 | 39020 ft | 499 kts | 27° |
| 2026-05-06 16:40 | 43.36552 | -8.08926 | 39022 ft | 499 kts | 27° |
| 2026-05-06 16:40 | 43.42606 | -8.04241 | 39019 ft | 499 kts | 27° |
| 2026-05-06 16:41 | 43.48654 | -7.99550 | 39013 ft | 499 kts | 27° |
| 2026-05-06 16:41 | 43.54695 | -7.94853 | 39013 ft | 499 kts | 27° |
| 2026-05-06 16:42 | 43.60736 | -7.90147 | 39012 ft | 498 kts | 28° |
| 2026-05-06 16:42 | 43.66770 | -7.85435 | 39015 ft | 498 kts | 27° |
| 2026-05-06 16:43 | 43.72766 | -7.80744 | 39015 ft | 498 kts | 28° |
| 2026-05-06 16:43 | 43.78797 | -7.76006 | 39017 ft | 498 kts | 28° |
| 2026-05-06 16:44 | 43.84822 | -7.71264 | 39015 ft | 498 kts | 28° |
| 2026-05-06 16:44 | 43.90843 | -7.66515 | 39018 ft | 498 kts | 28° |
| 2026-05-06 16:45 | 43.96865 | -7.61756 | 39017 ft | 498 kts | 28° |
| 2026-05-06 16:45 | 44.02854 | -7.57012 | 39018 ft | 498 kts | 28° |
| 2026-05-06 16:46 | 44.08872 | -7.52232 | 39018 ft | 498 kts | 28° |
| 2026-05-06 16:46 | 44.14896 | -7.47437 | 39018 ft | 498 kts | 28° |
| 2026-05-06 16:47 | 44.20918 | -7.42633 | 39019 ft | 498 kts | 28° |
| 2026-05-06 16:47 | 44.26927 | -7.37827 | 39007 ft | 498 kts | 28° |
| 2026-05-06 16:48 | 44.32902 | -7.33036 | 39020 ft | 498 kts | 28° |
| 2026-05-06 16:48 | 44.38911 | -7.28207 | 39028 ft | 498 kts | 28° |
| 2026-05-06 16:49 | 44.44920 | -7.23367 | 39014 ft | 498 kts | 28° |
| 2026-05-06 16:49 | 44.50924 | -7.18519 | 39017 ft | 498 kts | 28° |
| 2026-05-06 16:50 | 44.56927 | -7.13660 | 39027 ft | 498 kts | 28° |
| 2026-05-06 16:50 | 44.62926 | -7.08792 | 39021 ft | 498 kts | 28° |
| 2026-05-06 16:51 | 44.68930 | -7.03909 | 39017 ft | 498 kts | 28° |
| 2026-05-06 16:51 | 44.74923 | -6.99023 | 39012 ft | 498 kts | 28° |
| 2026-05-06 16:52 | 44.80916 | -6.94126 | 39019 ft | 498 kts | 28° |
| 2026-05-06 16:52 | 44.86822 | -6.89131 | 39019 ft | 499 kts | 32° |
| 2026-05-06 16:53 | 44.92492 | -6.83482 | 39024 ft | 499 kts | 34° |
| 2026-05-06 16:53 | 44.98116 | -6.77719 | 39018 ft | 499 kts | 34° |
| 2026-05-06 16:54 | 45.03772 | -6.72034 | 39022 ft | 499 kts | 33° |
| 2026-05-06 16:54 | 45.09460 | -6.66387 | 39021 ft | 499 kts | 33° |
| 2026-05-06 16:55 | 45.15154 | -6.60739 | 39024 ft | 499 kts | 33° |
| 2026-05-06 16:55 | 45.20841 | -6.55081 | 39025 ft | 499 kts | 33° |
| 2026-05-06 16:56 | 45.26519 | -6.49413 | 39019 ft | 499 kts | 33° |
| 2026-05-06 16:56 | 45.31242 | -6.44687 | 39019 ft | 499 kts | 33° |
| 2026-05-06 16:57 | 45.37831 | -6.38076 | 39021 ft | 499 kts | 33° |
| 2026-05-06 16:57 | 45.43493 | -6.32380 | 39024 ft | 499 kts | 33° |
| 2026-05-06 16:58 | 45.48245 | -6.27590 | 39019 ft | 499 kts | 33° |
| 2026-05-06 16:58 | 45.53905 | -6.21869 | 39027 ft | 499 kts | 34° |
| 2026-05-06 16:59 | 45.59530 | -6.16171 | 39023 ft | 499 kts | 34° |
| 2026-05-06 16:59 | 45.65186 | -6.10426 | 39020 ft | 498 kts | 34° |
| 2026-05-06 17:00 | 45.70840 | -6.04668 | 39022 ft | 498 kts | 34° |
| 2026-05-06 17:00 | 45.76494 | -5.98896 | 39021 ft | 499 kts | 34° |
| 2026-05-06 17:01 | 45.82141 | -5.93117 | 39028 ft | 499 kts | 34° |
| 2026-05-06 17:01 | 45.87784 | -5.87326 | 39017 ft | 498 kts | 34° |
| 2026-05-06 17:02 | 45.93411 | -5.81538 | 39017 ft | 498 kts | 34° |
| 2026-05-06 17:02 | 45.99002 | -5.75772 | 39017 ft | 498 kts | 34° |
| 2026-05-06 17:03 | 46.04625 | -5.69959 | 39015 ft | 497 kts | 34° |
| 2026-05-06 17:03 | 46.10244 | -5.64134 | 39015 ft | 497 kts | 34° |
| 2026-05-06 17:04 | 46.15856 | -5.58302 | 39015 ft | 497 kts | 34° |
| 2026-05-06 17:04 | 46.21463 | -5.52460 | 39013 ft | 497 kts | 34° |
| 2026-05-06 17:05 | 46.27066 | -5.46607 | 39013 ft | 497 kts | 34° |
| 2026-05-06 17:05 | 46.32670 | -5.40738 | 39012 ft | 497 kts | 34° |
| 2026-05-06 17:06 | 46.38271 | -5.34857 | 39010 ft | 497 kts | 34° |
| 2026-05-06 17:06 | 46.43832 | -5.29003 | 39007 ft | 497 kts | 34° |
| 2026-05-06 17:07 | 46.49420 | -5.23105 | 39009 ft | 497 kts | 34° |
| 2026-05-06 17:07 | 46.55020 | -5.17179 | 39007 ft | 496 kts | 34° |
| 2026-05-06 17:08 | 46.60599 | -5.11260 | 39007 ft | 496 kts | 34° |
| 2026-05-06 17:08 | 46.66177 | -5.05327 | 39004 ft | 496 kts | 34° |
| 2026-05-06 17:09 | 46.71750 | -4.99383 | 39002 ft | 496 kts | 34° |
| 2026-05-06 17:09 | 46.77324 | -4.93423 | 39001 ft | 496 kts | 34° |
| 2026-05-06 17:10 | 46.82890 | -4.87456 | 38997 ft | 496 kts | 34° |
| 2026-05-06 17:10 | 46.88421 | -4.81510 | 39004 ft | 496 kts | 35° |
| 2026-05-06 17:11 | 46.93976 | -4.75522 | 39000 ft | 496 kts | 35° |
| 2026-05-06 17:11 | 46.99533 | -4.69518 | 38993 ft | 496 kts | 35° |
| 2026-05-06 17:12 | 47.05086 | -4.63501 | 38991 ft | 496 kts | 35° |
| 2026-05-06 17:12 | 47.10636 | -4.57472 | 38989 ft | 496 kts | 35° |
| 2026-05-06 17:13 | 47.16179 | -4.51434 | 38990 ft | 496 kts | 35° |
| 2026-05-06 17:13 | 47.21722 | -4.45381 | 38982 ft | 496 kts | 35° |
| 2026-05-06 17:14 | 47.27262 | -4.39315 | 38981 ft | 496 kts | 35° |
| 2026-05-06 17:14 | 47.32759 | -4.33279 | 38982 ft | 496 kts | 35° |
| 2026-05-06 17:15 | 47.38291 | -4.27188 | 38979 ft | 496 kts | 35° |
| 2026-05-06 17:15 | 47.43822 | -4.21083 | 38979 ft | 496 kts | 35° |
| 2026-05-06 17:16 | 47.49350 | -4.14965 | 38973 ft | 496 kts | 35° |
| 2026-05-06 17:16 | 47.54869 | -4.08840 | 38962 ft | 496 kts | 35° |
| 2026-05-06 17:17 | 47.60386 | -4.02700 | 38967 ft | 496 kts | 36° |
| 2026-05-06 17:17 | 47.65897 | -3.96551 | 38972 ft | 496 kts | 36° |
| 2026-05-06 17:18 | 47.71411 | -3.90381 | 38974 ft | 496 kts | 36° |
| 2026-05-06 17:18 | 47.76888 | -3.84237 | 38959 ft | 496 kts | 36° |
| 2026-05-06 17:19 | 47.82393 | -3.78044 | 38969 ft | 496 kts | 36° |
| 2026-05-06 17:19 | 47.87897 | -3.71836 | 38959 ft | 496 kts | 36° |
| 2026-05-06 17:20 | 47.93405 | -3.65606 | 38962 ft | 496 kts | 36° |
| 2026-05-06 17:20 | 47.98909 | -3.59362 | 38965 ft | 497 kts | 36° |
| 2026-05-06 17:21 | 48.04415 | -3.53101 | 38963 ft | 497 kts | 36° |
| 2026-05-06 17:21 | 48.09880 | -3.46868 | 38967 ft | 497 kts | 36° |
| 2026-05-06 17:22 | 48.15373 | -3.40586 | 38965 ft | 497 kts | 36° |
| 2026-05-06 17:22 | 48.20867 | -3.34285 | 38969 ft | 496 kts | 36° |
| 2026-05-06 17:23 | 48.26358 | -3.27973 | 38966 ft | 496 kts | 36° |
| 2026-05-06 17:23 | 48.31923 | -3.21839 | 38970 ft | 496 kts | 33° |
| 2026-05-06 17:24 | 48.37613 | -3.15972 | 38971 ft | 496 kts | 33° |
| 2026-05-06 17:24 | 48.43268 | -3.10146 | 38970 ft | 496 kts | 33° |
| 2026-05-06 17:25 | 48.48981 | -3.04178 | 38969 ft | 496 kts | 33° |
| 2026-05-06 17:25 | 48.54600 | -2.98258 | 38993 ft | 496 kts | 33° |
| 2026-05-06 17:26 | 48.60255 | -2.92278 | 38990 ft | 496 kts | 33° |
| 2026-05-06 17:26 | 48.65900 | -2.86293 | 38993 ft | 496 kts | 33° |
| 2026-05-06 17:27 | 48.71547 | -2.80292 | 38973 ft | 496 kts | 34° |
| 2026-05-06 17:27 | 48.77199 | -2.74268 | 38971 ft | 496 kts | 34° |
| 2026-05-06 17:28 | 48.82840 | -2.68240 | 38971 ft | 496 kts | 34° |
| 2026-05-06 17:28 | 48.88484 | -2.62191 | 38977 ft | 496 kts | 34° |
| 2026-05-06 17:29 | 48.94119 | -2.56136 | 38978 ft | 496 kts | 34° |
| 2026-05-06 17:29 | 48.99727 | -2.50091 | 38981 ft | 496 kts | 34° |
| 2026-05-06 17:30 | 49.05356 | -2.44008 | 38990 ft | 496 kts | 34° |
| 2026-05-06 17:30 | 49.10982 | -2.37910 | 38989 ft | 496 kts | 34° |
| 2026-05-06 17:31 | 49.16608 | -2.31795 | 38993 ft | 496 kts | 34° |
| 2026-05-06 17:31 | 49.22237 | -2.25660 | 38982 ft | 496 kts | 34° |
| 2026-05-06 17:32 | 49.27868 | -2.19504 | 38985 ft | 496 kts | 34° |
| 2026-05-06 17:32 | 49.33449 | -2.13386 | 38987 ft | 496 kts | 34° |
| 2026-05-06 17:33 | 49.39067 | -2.07210 | 38986 ft | 496 kts | 34° |
| 2026-05-06 17:33 | 49.44676 | -2.01025 | 38986 ft | 496 kts | 34° |
| 2026-05-06 17:34 | 49.50289 | -1.94819 | 38990 ft | 496 kts | 34° |
| 2026-05-06 17:34 | 49.55892 | -1.88605 | 38989 ft | 497 kts | 34° |
| 2026-05-06 17:35 | 49.61497 | -1.82372 | 38992 ft | 497 kts | 34° |
| 2026-05-06 17:35 | 49.67095 | -1.76127 | 38854 ft | 496 kts | 34° |
| 2026-05-06 17:36 | 49.72685 | -1.69874 | 38336 ft | 496 kts | 34° |
| 2026-05-06 17:36 | 49.75483 | -1.66738 | 38055 ft | 496 kts | 34° |
| 2026-05-06 17:36 | 49.78280 | -1.63598 | 37806 ft | 496 kts | 34° |
| 2026-05-06 17:36 | 49.81063 | -1.60469 | 37524 ft | 495 kts | 34° |
| 2026-05-06 17:37 | 49.83851 | -1.57329 | 37243 ft | 495 kts | 34° |
| 2026-05-06 17:37 | 49.86611 | -1.54218 | 36983 ft | 495 kts | 34° |
| 2026-05-06 17:37 | 49.89419 | -1.51047 | 36685 ft | 494 kts | 34° |
| 2026-05-06 17:37 | 49.92175 | -1.47930 | 36085 ft | 491 kts | 34° |
| 2026-05-06 17:38 | 49.94942 | -1.44795 | 35422 ft | 489 kts | 34° |
| 2026-05-06 17:38 | 49.97688 | -1.41680 | 34725 ft | 489 kts | 34° |
| 2026-05-06 17:38 | 50.00400 | -1.38601 | 33969 ft | 490 kts | 34° |
| 2026-05-06 17:38 | 50.03163 | -1.35459 | 33064 ft | 491 kts | 35° |
| 2026-05-06 17:39 | 50.05918 | -1.32321 | 32220 ft | 490 kts | 35° |
| 2026-05-06 17:39 | 50.08667 | -1.29185 | 31393 ft | 490 kts | 35° |
| 2026-05-06 17:39 | 50.11426 | -1.26034 | 30539 ft | 491 kts | 35° |
| 2026-05-06 17:39 | 50.14188 | -1.22875 | 29585 ft | 493 kts | 35° |
| 2026-05-06 17:40 | 50.16938 | -1.19723 | 28855 ft | 488 kts | 35° |
| 2026-05-06 17:40 | 50.19656 | -1.16602 | 28396 ft | 479 kts | 35° |
| 2026-05-06 17:40 | 50.22338 | -1.13590 | 27980 ft | 469 kts | 32° |
| 2026-05-06 17:40 | 50.25147 | -1.11082 | 27405 ft | 462 kts | 24° |
| 2026-05-06 17:41 | 50.28088 | -1.09047 | 26609 ft | 462 kts | 21° |
| 2026-05-06 17:41 | 50.31063 | -1.07147 | 25820 ft | 462 kts | 20° |
| 2026-05-06 17:41 | 50.34043 | -1.05273 | 25046 ft | 462 kts | 20° |
| 2026-05-06 17:41 | 50.37028 | -1.03400 | 24306 ft | 461 kts | 20° |
| 2026-05-06 17:42 | 50.40004 | -1.01532 | 23563 ft | 460 kts | 20° |
| 2026-05-06 17:42 | 50.42974 | -0.99666 | 22717 ft | 459 kts | 20° |
| 2026-05-06 17:42 | 50.45894 | -0.97831 | 21883 ft | 457 kts | 20° |
| 2026-05-06 17:42 | 50.48836 | -0.95978 | 21069 ft | 454 kts | 20° |
| 2026-05-06 17:43 | 50.51760 | -0.94136 | 20331 ft | 451 kts | 20° |
| 2026-05-06 17:43 | 50.54656 | -0.92307 | 19623 ft | 446 kts | 20° |
| 2026-05-06 17:43 | 50.57526 | -0.90493 | 18947 ft | 442 kts | 20° |
| 2026-05-06 17:43 | 50.60366 | -0.88696 | 18258 ft | 438 kts | 20° |
| 2026-05-06 17:44 | 50.63183 | -0.86912 | 17489 ft | 430 kts | 20° |
| 2026-05-06 17:44 | 50.65888 | -0.85193 | 16688 ft | 410 kts | 20° |
| 2026-05-06 17:44 | 50.68473 | -0.83549 | 15896 ft | 392 kts | 20° |
| 2026-05-06 17:44 | 50.70918 | -0.81961 | 15150 ft | 377 kts | 22° |
| 2026-05-06 17:45 | 50.73148 | -0.79937 | 14475 ft | 363 kts | 35° |
| 2026-05-06 17:45 | 50.74932 | -0.77278 | 14064 ft | 344 kts | 50° |
| 2026-05-06 17:45 | 50.76175 | -0.74166 | 13656 ft | 328 kts | 62° |
| 2026-05-06 17:45 | 50.77056 | -0.70941 | 13222 ft | 314 kts | 68° |
| 2026-05-06 17:46 | 50.77741 | -0.67700 | 12783 ft | 309 kts | 71° |
| 2026-05-06 17:46 | 50.78337 | -0.64452 | 12336 ft | 307 kts | 72° |
| 2026-05-06 17:46 | 50.78907 | -0.61208 | 11894 ft | 304 kts | 73° |
| 2026-05-06 17:46 | 50.79475 | -0.57999 | 11463 ft | 302 kts | 72° |
| 2026-05-06 17:47 | 50.80050 | -0.54834 | 11078 ft | 299 kts | 72° |
| 2026-05-06 17:47 | 50.80638 | -0.51684 | 10807 ft | 297 kts | 71° |
| 2026-05-06 17:47 | 50.81230 | -0.48565 | 10555 ft | 295 kts | 71° |
| 2026-05-06 17:47 | 50.81824 | -0.45467 | 10317 ft | 294 kts | 71° |
| 2026-05-06 17:48 | 50.82218 | -0.43422 | 10147 ft | 293 kts | 71° |
| 2026-05-06 17:48 | 50.82794 | -0.40420 | 9900 ft | 276 kts | 71° |
| 2026-05-06 17:48 | 50.83331 | -0.37604 | 9676 ft | 259 kts | 71° |
| 2026-05-06 17:48 | 50.83845 | -0.34910 | 9407 ft | 253 kts | 71° |
| 2026-05-06 17:49 | 50.84355 | -0.32247 | 9133 ft | 253 kts | 70° |
| 2026-05-06 17:49 | 50.84864 | -0.29586 | 8882 ft | 253 kts | 71° |
| 2026-05-06 17:49 | 50.85375 | -0.26930 | 8620 ft | 252 kts | 71° |
| 2026-05-06 17:49 | 50.85892 | -0.24263 | 8364 ft | 253 kts | 70° |
| 2026-05-06 17:50 | 50.86404 | -0.21612 | 8117 ft | 251 kts | 70° |
| 2026-05-06 17:50 | 50.86907 | -0.18985 | 7971 ft | 249 kts | 70° |
| 2026-05-06 17:50 | 50.87415 | -0.16355 | 7963 ft | 250 kts | 70° |
| 2026-05-06 17:50 | 50.88163 | -0.13894 | 7970 ft | 247 kts | 54° |
| 2026-05-06 17:51 | 50.89141 | -0.11677 | 7964 ft | 246 kts | 51° |
| 2026-05-06 17:51 | 50.90159 | -0.09496 | 7971 ft | 246 kts | 51° |
| 2026-05-06 17:51 | 50.91179 | -0.07325 | 7966 ft | 246 kts | 51° |
| 2026-05-06 17:51 | 50.92198 | -0.05145 | 7967 ft | 246 kts | 51° |
| 2026-05-06 17:52 | 50.93217 | -0.02968 | 7969 ft | 246 kts | 51° |
| 2026-05-06 17:52 | 50.94238 | -0.00789 | 7973 ft | 246 kts | 51° |
| 2026-05-06 17:52 | 50.95259 | 0.01385 | 7974 ft | 246 kts | 51° |
| 2026-05-06 17:52 | 50.96290 | 0.03558 | 7974 ft | 247 kts | 51° |
| 2026-05-06 17:53 | 50.97314 | 0.05702 | 7973 ft | 247 kts | 51° |
| 2026-05-06 17:53 | 50.98345 | 0.07877 | 7972 ft | 247 kts | 51° |
| 2026-05-06 17:53 | 50.99375 | 0.10052 | 7978 ft | 247 kts | 51° |
| 2026-05-06 17:53 | 51.00414 | 0.12221 | 7980 ft | 247 kts | 51° |
| 2026-05-06 17:54 | 51.01509 | 0.14310 | 7974 ft | 245 kts | 39° |
| 2026-05-06 17:54 | 51.02993 | 0.15521 | 7990 ft | 240 kts | 9° |
| 2026-05-06 17:54 | 51.04634 | 0.15360 | 7984 ft | 238 kts | 339° |
| 2026-05-06 17:54 | 51.05976 | 0.13889 | 7985 ft | 237 kts | 309° |
| 2026-05-06 17:55 | 51.06651 | 0.11520 | 7979 ft | 240 kts | 279° |
| 2026-05-06 17:55 | 51.06562 | 0.08859 | 7771 ft | 243 kts | 259° |
| 2026-05-06 17:55 | 51.06158 | 0.06239 | 7362 ft | 245 kts | 256° |
| 2026-05-06 17:55 | 51.05715 | 0.03647 | 6976 ft | 247 kts | 256° |
| 2026-05-06 17:56 | 51.05275 | 0.01007 | 6577 ft | 248 kts | 256° |
| 2026-05-06 17:56 | 51.04833 | -0.01645 | 6178 ft | 248 kts | 257° |
| 2026-05-06 17:56 | 51.04366 | -0.04275 | 6006 ft | 238 kts | 256° |
| 2026-05-06 17:56 | 51.03910 | -0.06742 | 6019 ft | 235 kts | 256° |
| 2026-05-06 17:57 | 51.03445 | -0.09250 | 5844 ft | 236 kts | 256° |
| 2026-05-06 17:57 | 51.02983 | -0.11743 | 5540 ft | 235 kts | 255° |
| 2026-05-06 17:57 | 51.02648 | -0.14272 | 5226 ft | 233 kts | 264° |
| 2026-05-06 17:57 | 51.02604 | -0.16835 | 4933 ft | 231 kts | 274° |
| 2026-05-06 17:58 | 51.02706 | -0.19381 | 4616 ft | 231 kts | 276° |
| 2026-05-06 17:58 | 51.02831 | -0.21921 | 4300 ft | 231 kts | 276° |
| 2026-05-06 17:58 | 51.02954 | -0.24467 | 3982 ft | 231 kts | 276° |
| 2026-05-06 17:58 | 51.03059 | -0.26998 | 3710 ft | 229 kts | 276° |
| 2026-05-06 17:59 | 51.03154 | -0.29529 | 3528 ft | 229 kts | 276° |
| 2026-05-06 17:59 | 51.03257 | -0.32058 | 3352 ft | 230 kts | 276° |
| 2026-05-06 17:59 | 51.03359 | -0.34592 | 3165 ft | 230 kts | 276° |
| 2026-05-06 17:59 | 51.03445 | -0.37123 | 3035 ft | 229 kts | 276° |
| 2026-05-06 18:00 | 51.03527 | -0.39650 | 3013 ft | 229 kts | 276° |
| 2026-05-06 18:00 | 51.03611 | -0.42180 | 3013 ft | 230 kts | 276° |
| 2026-05-06 18:00 | 51.03696 | -0.44712 | 3018 ft | 229 kts | 275° |
| 2026-05-06 18:00 | 51.03797 | -0.47245 | 3018 ft | 230 kts | 276° |
| 2026-05-06 18:01 | 51.04178 | -0.49596 | 3011 ft | 214 kts | 303° |
| 2026-05-06 18:01 | 51.05189 | -0.51101 | 3024 ft | 190 kts | 338° |
| 2026-05-06 18:01 | 51.06421 | -0.51257 | 3046 ft | 176 kts | 15° |
| 2026-05-06 18:01 | 51.07470 | -0.50288 | 3029 ft | 176 kts | 38° |
| 2026-05-06 18:02 | 51.08405 | -0.49005 | 3015 ft | 179 kts | 41° |
| 2026-05-06 18:02 | 51.09327 | -0.47669 | 3016 ft | 180 kts | 40° |
| 2026-05-06 18:02 | 51.10247 | -0.46320 | 3019 ft | 179 kts | 41° |
| 2026-05-06 18:02 | 51.11105 | -0.44884 | 3010 ft | 182 kts | 54° |
| 2026-05-06 18:03 | 51.11540 | -0.42987 | 3025 ft | 184 kts | 77° |
| 2026-05-06 18:03 | 51.11769 | -0.40972 | 2872 ft | 185 kts | 75° |
| 2026-05-06 18:03 | 51.12051 | -0.39006 | 2603 ft | 177 kts | 73° |
| 2026-05-06 18:03 | 51.12311 | -0.37168 | 2385 ft | 164 kts | 74° |
| 2026-05-06 18:04 | 51.12551 | -0.35416 | 2146 ft | 161 kts | 75° |
| 2026-05-06 18:04 | 51.12790 | -0.33689 | 1922 ft | 160 kts | 74° |
| 2026-05-06 18:04 | 51.13029 | -0.31964 | 1704 ft | 160 kts | 74° |
| 2026-05-06 18:04 | 51.13263 | -0.30265 | 1484 ft | 152 kts | 73° |
| 2026-05-06 18:05 | 51.13481 | -0.28679 | 1280 ft | 141 kts | 73° |
| 2026-05-06 18:05 | 51.13687 | -0.27192 | 1080 ft | 134 kts | 75° |
| 2026-05-06 18:05 | 51.13885 | -0.25753 | 893 ft | 133 kts | 73° |
| 2026-05-06 18:05 | 51.14081 | -0.24339 | 702 ft | 132 kts | 75° |
| 2026-05-06 18:06 | 51.14275 | -0.22919 | 488 ft | 130 kts | 75° |
| 2026-05-06 18:06 | 51.14475 | -0.21517 | 318 ft | 129 kts | 77° |
| 2026-05-06 18:06 | 51.14661 | -0.20142 | 221 ft | 122 kts | 77° |
| 2026-05-06 18:06 | 51.14811 | -0.19057 | 219 ft | 65 kts | 77° |
| 2026-05-06 18:07 | 51.14886 | -0.18628 | 220 ft | 29 kts | 59° |
| 2026-05-06 18:07 | 51.14986 | -0.18422 | 219 ft | 17 kts | 52° |
| 2026-05-06 18:07 | 51.15042 | -0.18310 | 219 ft | 10 kts | 52° |
| 2026-05-06 18:07 | 51.15078 | -0.18239 | 220 ft | 6 kts | 51° |
| 2026-05-06 18:08 | 51.15093 | -0.18210 | 219 ft | 10 kts | 47° |
| 2026-05-06 18:08 | 51.15143 | -0.18191 | 217 ft | 8 kts | 350° |
| 2026-05-06 18:08 | 51.15203 | -0.18211 | 212 ft | 10 kts | 346° |
| 2026-05-06 18:08 | 51.15216 | -0.18216 | 212 ft | 0 kts | 347° |
| 2026-05-06 18:10 | 51.15225 | -0.18219 | 210 ft | 10 kts | 347° |
| 2026-05-06 18:10 | 51.15341 | -0.18259 | 217 ft | 17 kts | 348° |
| 2026-05-06 18:11 | 51.15432 | -0.18253 | 221 ft | 8 kts | 52° |
| 2026-05-06 18:11 | 51.15465 | -0.18187 | 221 ft | 7 kts | 17° |
| 2026-05-06 18:11 | 51.15521 | -0.18200 | 220 ft | 10 kts | 348° |
| 2026-05-06 18:11 | 51.15579 | -0.18220 | 210 ft | 6 kts | 347° |
| 2026-05-06 18:12 | 51.15631 | -0.18236 | 218 ft | 8 kts | 358° |
| 2026-05-06 18:12 | 51.15668 | -0.18182 | 215 ft | 6 kts | 71° |
| 2026-05-06 18:12 | 51.15676 | -0.18125 | 220 ft | 2 kts | 76° |
| 2026-05-06 18:12 | 51.15682 | -0.18085 | 218 ft | 4 kts | 76° |
| 2026-05-06 18:13 | 51.15682 | -0.18083 | 218 ft | 0 kts | 76° |
| 2026-05-06 18:13 | 51.15714 | -0.18039 | 218 ft | 11 kts | 15° |
| 2026-05-06 18:13 | 51.15769 | -0.18053 | 218 ft | 9 kts | 347° |
| 2026-05-06 18:13 | 51.15813 | -0.18066 | 217 ft | 2 kts | 349° |
| 2026-05-06 18:14 | 51.15830 | -0.18071 | 218 ft | 4 kts | 349° |